Strang, Nebraska
Current Conditions -  °F | °C
As of 7:35 AM on Sunday 23 Nov 2014 (Local Time) from KHJH Reporting Station
Overcast Overcast  
Wind Chill: 51°   Ceiling: 2600
Heat Index: 51°   Visibility: 7mi
Dew Point: 48°   Wind: 5mph
Humidity: 89%   Direction: 180°S
Pressure: 29.49"   Gusts: NA
Location:  40.42°N, 97.59°W
Report Text: KHJH 231335Z AUTO 18004KT 7SM OVC026 11/09 A2949 RMK AO2 T01080091
Loading
Personal Weather Stations






























Interactive Weather Map New forecast layout! Learn more

10-Day Weather Forecast

Advertisements
Track Severe Weather on mobile